createdAt,value
2023-02-18T00:01:14.449Z,102341.75
2023-02-18T00:03:42.300Z,102341.41
2023-02-18T00:06:16.970Z,102340.72
2023-02-18T00:08:45.277Z,102329.19
2023-02-18T00:11:13.314Z,102340.75
2023-02-18T00:13:40.703Z,102338.81
2023-02-18T00:16:11.326Z,102341.63
2023-02-18T00:18:39.782Z,102342.28
2023-02-18T00:21:08.250Z,102349.72
2023-02-18T00:23:36.230Z,102342.41
2023-02-18T00:26:07.618Z,102339.81
2023-02-18T00:28:35.379Z,102344.34
2023-02-18T00:31:13.149Z,102337.97
2023-02-18T00:33:41.335Z,102336.66
2023-02-18T00:36:11.549Z,102340.75
2023-02-18T00:38:39.600Z,102336.84
2023-02-18T00:41:07.005Z,102341.34
2023-02-18T00:43:34.503Z,102333.50
2023-02-18T00:46:03.256Z,102335.56
2023-02-18T00:48:32.225Z,102336.81
2023-02-18T00:51:01.184Z,102328.09
2023-02-18T00:53:29.211Z,102328.47
2023-02-18T00:55:57.725Z,102334.56
2023-02-18T00:58:25.787Z,102333.34
2023-02-18T01:00:54.039Z,102325.44
2023-02-18T01:03:22.703Z,102325.38
2023-02-18T01:05:50.671Z,102328.56
2023-02-18T01:08:19.184Z,102319.63
2023-02-18T01:10:48.552Z,102317.59
2023-02-18T01:13:16.702Z,102315.78
2023-02-18T01:15:46.447Z,102314.56
2023-02-18T01:18:14.386Z,102318.19
2023-02-18T01:20:43.383Z,102314.84
2023-02-18T01:23:11.601Z,102308.34
2023-02-18T01:25:39.371Z,102312.78
2023-02-18T01:28:09.668Z,102306.72
2023-02-18T01:30:37.103Z,102315.25
2023-02-18T01:33:05.494Z,102307.25
2023-02-18T01:35:33.573Z,102308.50
2023-02-18T01:38:01.538Z,102310.41
2023-02-18T01:40:30.398Z,102301.56
2023-02-18T01:42:57.982Z,102306.88
2023-02-18T01:45:34.789Z,102303.47
2023-02-18T01:48:17.566Z,102301.22
2023-02-18T01:50:49.194Z,102292.38
2023-02-18T01:53:20.967Z,102296.34
2023-02-18T01:55:49.158Z,102289.75
2023-02-18T01:58:17.397Z,102294.63
2023-02-18T02:00:46.527Z,102281.16
2023-02-18T02:03:15.420Z,102285.63
2023-02-18T02:05:44.300Z,102277.13
2023-02-18T02:08:16.545Z,102281.88
2023-02-18T02:10:59.534Z,102277.31
2023-02-18T02:13:35.663Z,102277.53
2023-02-18T02:16:37.406Z,102273.69
2023-02-18T02:19:35.925Z,102270.56
2023-02-18T02:22:26.189Z,102267.59
2023-02-18T02:25:16.799Z,102266.22
2023-02-18T02:27:53.444Z,102257.53
2023-02-18T02:30:30.040Z,102260.00
2023-02-18T02:33:06.141Z,102259.44
2023-02-18T02:36:00.252Z,102248.19
2023-02-18T02:38:39.517Z,102258.84
2023-02-18T02:41:20.075Z,102246.16
2023-02-18T02:44:07.909Z,102246.00
2023-02-18T02:46:45.659Z,102244.69
2023-02-18T02:49:40.027Z,102236.59
2023-02-18T02:52:18.367Z,102234.28
2023-02-18T02:54:46.332Z,102233.75
2023-02-18T02:57:13.818Z,102235.47
2023-02-18T02:59:58.515Z,102230.13
2023-02-18T03:02:38.693Z,102239.69
2023-02-18T03:05:33.878Z,102220.97
2023-02-18T03:08:28.875Z,102228.78
2023-02-18T03:11:05.453Z,102234.66
2023-02-18T03:13:41.886Z,102233.16
2023-02-18T03:16:26.109Z,102235.56
2023-02-18T03:19:18.156Z,102232.22
2023-02-18T03:21:50.403Z,102230.75
2023-02-18T03:24:27.817Z,102226.59
2023-02-18T03:27:10.176Z,102220.84
2023-02-18T03:29:38.644Z,102219.16
2023-02-18T03:32:08.471Z,102222.03
2023-02-18T03:34:40.220Z,102214.84
2023-02-18T03:37:09.386Z,102226.91
2023-02-18T03:39:38.193Z,102225.56
2023-02-18T03:42:05.928Z,102214.19
2023-02-18T03:44:33.389Z,102213.72
2023-02-18T03:47:01.132Z,102217.09
2023-02-18T03:49:28.512Z,102218.44
2023-02-18T03:51:56.111Z,102221.75
2023-02-18T03:54:23.680Z,102221.09
2023-02-18T03:56:51.108Z,102215.25
2023-02-18T03:59:18.488Z,102217.16
2023-02-18T04:01:45.929Z,102228.03
2023-02-18T04:04:13.581Z,102216.94
2023-02-18T04:06:41.021Z,102219.00
2023-02-18T04:09:09.064Z,102224.88
2023-02-18T04:11:40.817Z,102214.78
2023-02-18T04:14:08.702Z,102216.22
2023-02-18T04:16:36.173Z,102216.13
2023-02-18T04:19:03.802Z,102220.94
2023-02-18T04:21:31.359Z,102208.91
2023-02-18T04:23:58.976Z,102215.50
2023-02-18T04:26:26.479Z,102212.78
2023-02-18T04:28:53.849Z,102220.97
2023-02-18T04:31:21.350Z,102222.34
2023-02-18T04:33:49.146Z,102212.34
2023-02-18T04:36:17.431Z,102222.56
2023-02-18T04:38:44.694Z,102225.06
2023-02-18T04:41:12.854Z,102213.59
2023-02-18T04:43:40.423Z,102212.72
2023-02-18T04:46:08.257Z,102209.47
2023-02-18T04:48:35.816Z,102212.16
2023-02-18T04:51:03.613Z,102222.66
2023-02-18T04:53:31.166Z,102212.06
2023-02-18T04:55:59.442Z,102218.50
2023-02-18T04:58:26.917Z,102221.97
2023-02-18T05:00:54.391Z,102212.44
2023-02-18T05:03:21.754Z,102218.38
2023-02-18T05:05:49.270Z,102217.22
2023-02-18T05:08:16.763Z,102222.41
2023-02-18T05:10:44.032Z,102219.16
2023-02-18T05:13:11.385Z,102230.34
2023-02-18T05:15:39.027Z,102221.84
2023-02-18T05:18:07.388Z,102215.59
2023-02-18T05:20:35.146Z,102230.56
2023-02-18T05:23:02.754Z,102227.50
2023-02-18T05:25:30.142Z,102226.00
2023-02-18T05:27:57.633Z,102231.09
2023-02-18T05:30:25.268Z,102232.16
2023-02-18T05:32:52.687Z,102217.69
2023-02-18T05:35:20.272Z,102219.75
2023-02-18T05:37:47.849Z,102217.69
2023-02-18T05:40:15.288Z,102231.28
2023-02-18T05:42:42.663Z,102228.34
2023-02-18T05:45:10.322Z,102224.94
2023-02-18T05:47:37.885Z,102220.63
2023-02-18T05:50:06.561Z,102227.94
2023-02-18T05:52:34.157Z,102228.09
2023-02-18T05:55:01.500Z,102220.59
2023-02-18T05:57:29.469Z,102216.59
2023-02-18T05:59:57.908Z,102224.97
2023-02-18T06:02:26.320Z,102213.41
2023-02-18T06:04:53.671Z,102218.91
2023-02-18T06:07:21.116Z,102213.34
2023-02-18T06:09:49.220Z,102216.44
2023-02-18T06:12:17.078Z,102215.25
2023-02-18T06:14:44.520Z,102214.28
2023-02-18T06:17:13.199Z,102218.81
2023-02-18T06:19:41.037Z,102217.34
2023-02-18T06:22:08.581Z,102218.50
2023-02-18T06:24:35.825Z,102216.44
2023-02-18T06:27:04.101Z,102213.09
2023-02-18T06:29:32.079Z,102215.16
2023-02-18T06:32:00.151Z,102215.03
2023-02-18T06:34:28.341Z,102217.19
2023-02-18T06:36:55.774Z,102211.31
2023-02-18T06:39:23.517Z,102214.91
2023-02-18T06:41:50.965Z,102208.38
2023-02-18T06:44:18.268Z,102209.06
2023-02-18T06:46:45.797Z,102196.44
2023-02-18T06:49:13.245Z,102196.16
2023-02-18T06:51:42.495Z,102200.84
2023-02-18T06:54:09.884Z,102200.28
2023-02-18T06:56:37.198Z,102201.63
2023-02-18T06:59:04.830Z,102203.72
2023-02-18T07:01:32.171Z,102198.38
2023-02-18T07:03:59.954Z,102200.88
2023-02-18T07:06:27.268Z,102201.34
2023-02-18T07:08:54.673Z,102208.31
2023-02-18T07:11:22.287Z,102198.69
2023-02-18T07:13:50.143Z,102200.31
2023-02-18T07:16:17.581Z,102209.59
2023-02-18T07:18:46.140Z,102205.19
2023-02-18T07:21:13.582Z,102207.75
2023-02-18T07:23:41.364Z,102210.00
2023-02-18T07:26:11.344Z,102219.09
2023-02-18T07:28:38.866Z,102215.28
2023-02-18T07:31:06.804Z,102220.66
2023-02-18T07:33:34.411Z,102216.59
2023-02-18T07:36:03.129Z,102214.03
2023-02-18T07:38:30.885Z,102211.16
2023-02-18T07:40:59.288Z,102220.31
2023-02-18T07:43:26.786Z,102207.56
2023-02-18T07:45:55.122Z,102214.22
2023-02-18T07:48:22.437Z,102217.28
2023-02-18T07:50:49.859Z,102206.22
2023-02-18T07:53:17.338Z,102216.59
2023-02-18T07:55:50.823Z,102206.34
2023-02-18T07:58:27.289Z,102216.09
2023-02-18T08:00:55.142Z,102211.34
2023-02-18T08:03:25.004Z,102220.19
2023-02-18T08:05:52.717Z,102222.34
2023-02-18T08:08:26.182Z,102227.72
2023-02-18T08:10:55.520Z,102221.63
2023-02-18T08:13:22.884Z,102232.09
2023-02-18T08:15:50.482Z,102230.84
2023-02-18T08:18:20.617Z,102238.84
2023-02-18T08:20:49.315Z,102237.88
2023-02-18T08:23:17.187Z,102244.22
2023-02-18T08:25:50.527Z,102239.00
2023-02-18T08:28:19.043Z,102236.22
2023-02-18T08:30:51.115Z,102243.59
2023-02-18T08:33:19.313Z,102247.81
2023-02-18T08:35:47.592Z,102246.34
2023-02-18T08:38:15.164Z,102248.41
2023-02-18T08:40:42.885Z,102238.84
2023-02-18T08:43:10.942Z,102247.78
2023-02-18T08:45:39.471Z,102248.16
2023-02-18T08:48:18.157Z,102252.28
2023-02-18T08:50:48.270Z,102252.66
2023-02-18T08:53:16.153Z,102245.34
2023-02-18T08:55:44.027Z,102249.69
2023-02-18T08:58:11.742Z,102249.03
2023-02-18T09:00:40.269Z,102247.81
2023-02-18T09:03:08.065Z,102253.59
2023-02-18T09:05:35.465Z,102257.53
2023-02-18T09:08:02.922Z,102256.81
2023-02-18T09:10:30.186Z,102253.09
2023-02-18T09:12:57.540Z,102258.09
2023-02-18T09:15:25.463Z,102253.47
2023-02-18T09:17:54.006Z,102267.53
2023-02-18T09:20:21.510Z,102254.22
2023-02-18T09:22:48.980Z,102255.53
2023-02-18T09:25:16.421Z,102258.75
2023-02-18T09:27:44.007Z,102260.75
2023-02-18T09:30:12.103Z,102258.84
2023-02-18T09:32:39.780Z,102269.41
2023-02-18T09:35:07.586Z,102259.78
2023-02-18T09:37:35.016Z,102261.81
2023-02-18T09:40:02.375Z,102263.19
2023-02-18T09:42:32.982Z,102271.66
2023-02-18T09:45:04.581Z,102276.50
2023-02-18T09:47:37.429Z,102275.22
2023-02-18T09:50:09.361Z,102264.97
2023-02-18T09:52:38.576Z,102278.78
2023-02-18T09:55:30.034Z,102266.06
2023-02-18T09:58:01.370Z,102267.28
2023-02-18T10:00:36.995Z,102269.25
2023-02-18T10:03:08.168Z,102272.06
2023-02-18T10:05:36.590Z,102264.75
2023-02-18T10:08:08.378Z,102273.16
2023-02-18T10:10:42.622Z,102278.09
2023-02-18T10:13:21.885Z,102283.03
2023-02-18T10:15:51.274Z,102274.38
2023-02-18T10:18:27.727Z,102270.66
2023-02-18T10:21:05.296Z,102277.53
2023-02-18T10:23:42.286Z,102270.72
2023-02-18T10:26:15.787Z,102277.00
2023-02-18T10:28:43.658Z,102277.50
2023-02-18T10:31:15.842Z,102281.34
2023-02-18T10:33:48.283Z,102285.09
2023-02-18T10:36:28.914Z,102288.78
2023-02-18T10:38:59.097Z,102285.66
2023-02-18T10:41:29.689Z,102277.66
2023-02-18T10:44:19.194Z,102284.09
2023-02-18T10:47:06.584Z,102273.66
2023-02-18T10:49:40.117Z,102278.88
2023-02-18T10:52:15.645Z,102279.22
2023-02-18T10:55:09.552Z,102280.72
2023-02-18T10:57:47.306Z,102279.91
2023-02-18T11:00:14.648Z,102279.59
2023-02-18T11:02:42.629Z,102267.75
2023-02-18T11:05:28.747Z,102280.38
2023-02-18T11:07:59.171Z,102287.56
2023-02-18T11:10:31.571Z,102278.63
2023-02-18T11:13:02.416Z,102279.13
2023-02-18T11:15:30.217Z,102278.31
2023-02-18T11:18:13.089Z,102276.69
2023-02-18T11:20:41.248Z,102284.53
2023-02-18T11:23:18.151Z,102272.00
2023-02-18T11:26:00.401Z,102273.78
2023-02-18T11:28:45.726Z,102275.47
2023-02-18T11:31:22.911Z,102274.63
2023-02-18T11:33:57.169Z,102283.81
2023-02-18T11:36:33.383Z,102285.41
2023-02-18T11:39:07.580Z,102280.13
2023-02-18T11:41:40.738Z,102270.53
2023-02-18T11:44:31.707Z,102286.91
2023-02-18T11:47:15.045Z,102271.88
2023-02-18T11:49:44.999Z,102263.81
2023-02-18T11:52:22.616Z,102271.72
2023-02-18T11:55:22.386Z,102266.38
2023-02-18T11:57:53.220Z,102271.81
2023-02-18T12:00:43.690Z,102254.19
2023-02-18T12:03:34.720Z,102255.38
2023-02-18T12:06:06.264Z,102253.56
2023-02-18T12:08:38.598Z,102259.56
2023-02-18T12:11:13.656Z,102247.91
2023-02-18T12:13:51.589Z,102261.00
2023-02-18T12:16:45.489Z,102249.75
2023-02-18T12:19:25.376Z,102255.00
2023-02-18T12:22:08.562Z,102236.47
2023-02-18T12:24:42.094Z,102238.34
2023-02-18T12:27:46.001Z,102230.34
2023-02-18T12:30:22.480Z,102230.94
2023-02-18T12:33:12.565Z,102228.44
2023-02-18T12:36:15.016Z,102228.81
2023-02-18T12:39:14.779Z,102224.69
2023-02-18T12:42:08.152Z,102220.56
2023-02-18T12:44:55.335Z,102208.91
2023-02-18T12:47:44.629Z,102210.16
2023-02-18T12:50:21.074Z,102203.06
2023-02-18T12:52:56.640Z,102202.13
2023-02-18T12:55:39.278Z,102202.22
2023-02-18T12:58:21.626Z,102197.06
2023-02-18T13:01:01.178Z,102195.22
2023-02-18T13:04:03.982Z,102205.09
2023-02-18T13:07:07.968Z,102196.78
2023-02-18T13:09:58.052Z,102191.00
2023-02-18T13:12:32.807Z,102195.72
2023-02-18T13:15:06.281Z,102185.44
2023-02-18T13:17:36.858Z,102183.19
2023-02-18T13:20:26.305Z,102180.44
2023-02-18T13:22:54.077Z,102178.03
2023-02-18T13:25:22.151Z,102177.44
2023-02-18T13:28:42.123Z,102167.31
2023-02-18T13:31:37.425Z,102178.78
2023-02-18T13:34:08.066Z,102181.22
2023-02-18T13:36:47.303Z,102177.88
2023-02-18T13:39:20.584Z,102178.88
2023-02-18T13:41:50.659Z,102173.44
2023-02-18T13:44:20.917Z,102166.72
2023-02-18T13:46:49.659Z,102176.44
2023-02-18T13:49:22.783Z,102167.84
2023-02-18T13:51:51.537Z,102170.31
2023-02-18T13:54:24.843Z,102168.47
2023-02-18T13:57:03.040Z,102155.09
2023-02-18T13:59:42.040Z,102150.31
2023-02-18T14:02:21.736Z,102156.91
2023-02-18T14:04:51.954Z,102158.66
2023-02-18T14:07:36.011Z,102154.09
2023-02-18T14:10:27.456Z,102150.47
2023-02-18T14:13:20.959Z,102149.22
2023-02-18T14:15:57.106Z,102146.81
2023-02-18T14:18:32.198Z,102140.22
2023-02-18T14:21:05.667Z,102147.31
2023-02-18T14:23:43.612Z,102140.84
2023-02-18T14:26:14.097Z,102143.38
2023-02-18T14:28:45.520Z,102134.91
2023-02-18T14:31:13.683Z,102145.59
2023-02-18T14:33:44.647Z,102138.81
2023-02-18T14:36:15.237Z,102141.28
2023-02-18T14:39:09.249Z,102139.38
2023-02-18T14:41:42.868Z,102138.94
2023-02-18T14:44:47.678Z,102132.66
2023-02-18T14:47:23.012Z,102139.00
2023-02-18T14:49:53.609Z,102130.63
2023-02-18T14:52:33.759Z,102131.09
2023-02-18T14:55:01.530Z,102128.38
2023-02-18T14:57:53.582Z,102117.44
2023-02-18T15:00:26.226Z,102112.16
2023-02-18T15:02:55.137Z,102113.81
2023-02-18T15:05:25.318Z,102109.00
2023-02-18T15:07:55.619Z,102106.25
2023-02-18T15:10:27.590Z,102105.59
2023-02-18T15:12:55.024Z,102101.31
2023-02-18T15:15:22.675Z,102092.56
2023-02-18T15:17:50.597Z,102097.38
2023-02-18T15:20:18.033Z,102092.66
2023-02-18T15:22:45.619Z,102088.13
2023-02-18T15:25:13.911Z,102088.72
2023-02-18T15:27:44.638Z,102081.22
2023-02-18T15:30:29.833Z,102083.97
2023-02-18T15:32:59.122Z,102087.50
2023-02-18T15:35:30.119Z,102078.75
2023-02-18T15:37:59.656Z,102086.50
2023-02-18T15:40:31.158Z,102082.00
2023-02-18T15:43:01.048Z,102077.03
2023-02-18T15:45:39.308Z,102071.78
2023-02-18T15:48:06.916Z,102068.69
2023-02-18T15:50:45.383Z,102072.13
2023-02-18T15:53:16.258Z,102077.44
2023-02-18T15:55:46.802Z,102079.09
2023-02-18T15:58:31.118Z,102080.97
2023-02-18T16:01:01.826Z,102081.69
2023-02-18T16:03:31.650Z,102076.91
2023-02-18T16:06:25.537Z,102072.66
2023-02-18T16:09:02.726Z,102074.00
2023-02-18T16:11:35.148Z,102068.84
2023-02-18T16:14:02.944Z,102058.88
2023-02-18T16:16:33.782Z,102062.09
2023-02-18T16:19:01.501Z,102064.47
2023-02-18T16:21:40.629Z,102065.09
2023-02-18T16:24:41.033Z,102064.81
2023-02-18T16:27:16.158Z,102066.16
2023-02-18T16:29:45.745Z,102064.53
2023-02-18T16:32:18.439Z,102064.03
2023-02-18T16:34:48.857Z,102073.88
2023-02-18T16:37:35.102Z,102070.56
2023-02-18T16:40:05.571Z,102066.09
2023-02-18T16:42:33.581Z,102073.50
2023-02-18T16:45:03.865Z,102076.78
2023-02-18T16:47:31.226Z,102064.91
2023-02-18T16:49:59.639Z,102077.66
2023-02-18T16:52:30.284Z,102075.09
2023-02-18T16:55:01.273Z,102067.00
2023-02-18T16:57:34.246Z,102076.94
2023-02-18T17:00:01.946Z,102079.31
2023-02-18T17:02:30.574Z,102083.06
2023-02-18T17:04:59.620Z,102086.13
2023-02-18T17:07:27.475Z,102083.81
2023-02-18T17:09:54.794Z,102083.13
2023-02-18T17:12:22.423Z,102087.63
2023-02-18T17:14:49.886Z,102081.78
2023-02-18T17:17:22.624Z,102082.84
2023-02-18T17:19:50.343Z,102079.09
2023-02-18T17:22:18.095Z,102088.81
2023-02-18T17:24:45.702Z,102083.88
2023-02-18T17:27:13.261Z,102087.78
2023-02-18T17:29:40.821Z,102079.56
2023-02-18T17:32:08.872Z,102082.56
2023-02-18T17:34:41.294Z,102085.94
2023-02-18T17:37:14.027Z,102084.41
2023-02-18T17:39:44.383Z,102084.19
2023-02-18T17:42:11.877Z,102088.00
2023-02-18T17:44:40.568Z,102087.72
2023-02-18T17:47:07.977Z,102091.53
2023-02-18T17:49:35.395Z,102086.88
2023-02-18T17:52:02.841Z,102090.03
2023-02-18T17:54:30.329Z,102089.72
2023-02-18T17:56:57.818Z,102096.72
2023-02-18T17:59:28.498Z,102085.22
2023-02-18T18:01:55.945Z,102091.59
2023-02-18T18:04:26.115Z,102098.09
2023-02-18T18:06:59.865Z,102090.72
2023-02-18T18:09:27.465Z,102094.66
2023-02-18T18:11:56.982Z,102098.94
2023-02-18T18:14:24.577Z,102092.13
2023-02-18T18:16:52.170Z,102088.97
2023-02-18T18:19:19.581Z,102099.19
2023-02-18T18:21:52.599Z,102100.00
2023-02-18T18:24:22.925Z,102108.94
2023-02-18T18:26:50.436Z,102108.66
2023-02-18T18:29:17.980Z,102106.97
2023-02-18T18:31:45.474Z,102103.44
2023-02-18T18:34:16.750Z,102107.66
2023-02-18T18:36:44.520Z,102105.34
2023-02-18T18:39:16.870Z,102099.41
2023-02-18T18:41:44.362Z,102106.72
2023-02-18T18:44:12.167Z,102114.09
2023-02-18T18:46:39.671Z,102099.41
2023-02-18T18:49:07.016Z,102105.31
2023-02-18T18:51:34.382Z,102103.56
2023-02-18T18:54:01.794Z,102108.81
2023-02-18T18:56:29.651Z,102103.34
2023-02-18T18:58:57.348Z,102116.06
2023-02-18T19:01:27.507Z,102114.25
2023-02-18T19:03:55.316Z,102115.53
2023-02-18T19:06:22.878Z,102117.41
2023-02-18T19:08:50.381Z,102124.59
2023-02-18T19:11:18.109Z,102125.47
2023-02-18T19:13:45.982Z,102119.41
2023-02-18T19:16:35.102Z,102127.53
2023-02-18T19:19:06.006Z,102125.06
2023-02-18T19:21:33.695Z,102125.47
2023-02-18T19:24:01.160Z,102120.25
2023-02-18T19:26:28.435Z,102122.13
2023-02-18T19:28:55.809Z,102116.09
2023-02-18T19:31:24.496Z,102117.34
2023-02-18T19:33:52.327Z,102114.59
2023-02-18T19:36:19.808Z,102116.47
2023-02-18T19:38:48.214Z,102115.44
2023-02-18T19:41:17.103Z,102120.19
2023-02-18T19:43:46.596Z,102113.75
2023-02-18T19:46:16.610Z,102117.59
2023-02-18T19:48:49.316Z,102120.06
2023-02-18T19:51:17.038Z,102119.63
2023-02-18T19:53:44.604Z,102121.72
2023-02-18T19:56:12.348Z,102118.97
2023-02-18T19:58:40.431Z,102117.59
2023-02-18T20:01:16.155Z,102116.81
2023-02-18T20:03:44.122Z,102114.41
2023-02-18T20:06:21.054Z,102112.91
2023-02-18T20:08:48.610Z,102109.41
2023-02-18T20:11:16.444Z,102097.66
2023-02-18T20:13:44.293Z,102104.13
2023-02-18T20:16:12.146Z,102085.53
2023-02-18T20:18:39.766Z,102079.66
2023-02-18T20:21:10.844Z,102076.97
2023-02-18T20:23:38.764Z,102084.22
2023-02-18T20:26:10.111Z,102074.94
2023-02-18T20:28:37.473Z,102081.56
2023-02-18T20:31:11.364Z,102088.00
2023-02-18T20:33:39.707Z,102091.72
2023-02-18T20:36:08.639Z,102087.78
2023-02-18T20:38:37.072Z,102094.94
2023-02-18T20:41:14.672Z,102087.75
2023-02-18T20:43:42.344Z,102087.22
2023-02-18T20:46:12.345Z,102085.16
2023-02-18T20:48:40.068Z,102076.41
2023-02-18T20:51:13.680Z,102086.19
2023-02-18T20:53:42.382Z,102087.78
2023-02-18T20:56:10.069Z,102085.41
2023-02-18T20:58:38.231Z,102073.97
2023-02-18T21:01:11.264Z,102094.47
2023-02-18T21:03:39.637Z,102080.78
2023-02-18T21:06:10.021Z,102093.19
2023-02-18T21:08:40.340Z,102093.44
2023-02-18T21:11:11.489Z,102095.25
2023-02-18T21:13:39.104Z,102095.00
2023-02-18T21:16:07.344Z,102091.75
2023-02-18T21:18:34.894Z,102097.59
2023-02-18T21:21:03.949Z,102092.22
2023-02-18T21:23:31.401Z,102082.59
2023-02-18T21:26:12.895Z,102089.31
2023-02-18T21:28:40.572Z,102076.25
2023-02-18T21:31:18.077Z,102084.13
2023-02-18T21:33:45.700Z,102081.22
2023-02-18T21:36:14.288Z,102081.25
2023-02-18T21:38:44.655Z,102076.78
2023-02-18T21:41:12.863Z,102070.44
2023-02-18T21:43:40.455Z,102071.75
2023-02-18T21:46:15.822Z,102070.00
2023-02-18T21:49:02.370Z,102083.84
2023-02-18T21:51:53.551Z,102074.66
2023-02-18T21:54:24.198Z,102083.19
2023-02-18T21:56:51.762Z,102068.31
2023-02-18T21:59:20.573Z,102070.13
2023-02-18T22:01:48.575Z,102062.13
2023-02-18T22:04:16.409Z,102059.19
2023-02-18T22:06:43.757Z,102053.91
2023-02-18T22:09:11.567Z,102050.63
2023-02-18T22:11:42.055Z,102050.00
2023-02-18T22:14:13.877Z,102058.06
2023-02-18T22:16:42.024Z,102049.94
2023-02-18T22:19:11.166Z,102048.88
2023-02-18T22:21:38.649Z,102055.16
2023-02-18T22:24:06.863Z,102060.28
2023-02-18T22:26:34.468Z,102055.31
2023-02-18T22:29:02.052Z,102057.13
2023-02-18T22:31:31.405Z,102052.56
2023-02-18T22:33:59.851Z,102045.22
2023-02-18T22:36:28.548Z,102034.16
2023-02-18T22:38:56.465Z,102044.97
2023-02-18T22:41:24.693Z,102034.84
2023-02-18T22:43:56.703Z,102038.34
2023-02-18T22:46:24.618Z,102046.19
2023-02-18T22:48:53.470Z,102059.06
2023-02-18T22:51:29.265Z,102053.66
2023-02-18T22:53:58.064Z,102061.34
2023-02-18T22:56:27.366Z,102057.16
2023-02-18T22:58:55.875Z,102064.72
2023-02-18T23:01:25.024Z,102065.59
2023-02-18T23:03:53.543Z,102053.41
2023-02-18T23:06:21.890Z,102065.84
2023-02-18T23:08:49.774Z,102055.91
2023-02-18T23:11:19.211Z,102044.66
2023-02-18T23:14:07.655Z,102046.66
2023-02-18T23:16:56.692Z,102056.50
2023-02-18T23:19:25.855Z,102062.59
2023-02-18T23:21:53.297Z,102068.06
2023-02-18T23:24:21.331Z,102066.69
2023-02-18T23:26:49.111Z,102075.59
2023-02-18T23:29:17.036Z,102073.69
2023-02-18T23:31:44.634Z,102072.75
2023-02-18T23:34:14.479Z,102068.34
2023-02-18T23:36:43.295Z,102070.09
2023-02-18T23:39:13.384Z,102081.31
2023-02-18T23:41:40.768Z,102076.88
2023-02-18T23:44:11.273Z,102079.41
2023-02-18T23:46:39.518Z,102078.19
2023-02-18T23:49:07.277Z,102082.00
2023-02-18T23:51:34.761Z,102070.72
2023-02-18T23:54:03.525Z,102071.72
2023-02-18T23:56:31.935Z,102077.53
2023-02-18T23:59:01.356Z,102073.00
